createdAt,value
2023-04-21T00:04:33.292Z,100.00
2023-04-21T00:09:39.764Z,100.00
2023-04-21T00:14:45.749Z,100.00
2023-04-21T00:19:51.946Z,100.00
2023-04-21T00:24:53.486Z,100.00
2023-04-21T00:29:55.080Z,100.00
2023-04-21T00:34:57.844Z,100.00
2023-04-21T00:39:59.502Z,100.00
2023-04-21T00:45:01.141Z,100.00
2023-04-21T00:50:04.321Z,100.00
2023-04-21T00:55:07.107Z,100.00
2023-04-21T01:00:10.584Z,100.00
2023-04-21T01:05:12.765Z,100.00
2023-04-21T01:10:14.475Z,100.00
2023-04-21T01:15:17.499Z,100.00
2023-04-21T01:20:19.046Z,100.00
2023-04-21T01:25:28.626Z,100.00
2023-04-21T01:30:39.819Z,100.00
2023-04-21T01:35:51.899Z,100.00
2023-04-21T01:40:55.857Z,100.00
2023-04-21T01:45:57.495Z,100.00
2023-04-21T01:51:04.014Z,100.00
2023-04-21T01:56:05.842Z,100.00
2023-04-21T02:01:12.446Z,100.00
2023-04-21T02:06:14.147Z,100.00
2023-04-21T02:11:15.684Z,100.00
2023-04-21T02:16:26.293Z,100.00
2023-04-21T02:21:28.531Z,100.00
2023-04-21T02:26:33.928Z,100.00
2023-04-21T02:31:46.106Z,100.00
2023-04-21T02:36:56.081Z,100.00
2023-04-21T02:42:04.339Z,100.00
2023-04-21T02:47:05.957Z,100.00
2023-04-21T02:52:10.237Z,100.00
2023-04-21T02:57:11.809Z,100.00
2023-04-21T03:02:14.564Z,100.00
2023-04-21T03:07:21.974Z,100.00
2023-04-21T03:12:23.536Z,100.00
2023-04-21T03:17:25.393Z,100.00
2023-04-21T03:22:27.909Z,100.00
2023-04-21T03:27:29.418Z,100.00
2023-04-21T03:32:33.973Z,100.00
2023-04-21T03:37:35.621Z,100.00
2023-04-21T03:42:39.955Z,100.00
2023-04-21T03:47:41.571Z,100.00
2023-04-21T03:52:43.143Z,100.00
2023-04-21T03:57:44.683Z,100.00
2023-04-21T04:02:46.351Z,100.00
2023-04-21T04:07:51.953Z,100.00
2023-04-21T04:12:55.172Z,100.00
2023-04-21T04:17:56.759Z,100.00
2023-04-21T04:22:58.353Z,100.00
2023-04-21T04:27:59.953Z,100.00
2023-04-21T04:33:04.110Z,100.00
2023-04-21T04:38:07.572Z,100.00
2023-04-21T04:43:10.589Z,100.00
2023-04-21T04:48:12.120Z,100.00
2023-04-21T04:53:13.607Z,100.00
2023-04-21T04:58:15.210Z,100.00
2023-04-21T05:03:16.998Z,100.00
2023-04-21T05:08:18.621Z,100.00
2023-04-21T05:13:20.322Z,100.00
2023-04-21T05:18:23.303Z,100.00
2023-04-21T05:23:24.913Z,100.00
2023-04-21T05:28:30.063Z,100.00
2023-04-21T05:33:32.013Z,100.00
2023-04-21T05:38:33.670Z,100.00
2023-04-21T05:43:40.104Z,100.00
2023-04-21T05:48:41.705Z,100.00
2023-04-21T05:53:45.202Z,100.00
2023-04-21T05:58:46.915Z,100.00
2023-04-21T06:03:51.400Z,100.00
2023-04-21T06:08:52.994Z,100.00
2023-04-21T06:13:58.227Z,100.00
2023-04-21T06:19:00.277Z,100.00
2023-04-21T06:24:01.950Z,100.00
2023-04-21T06:29:04.170Z,100.00
2023-04-21T06:34:05.702Z,100.00
2023-04-21T06:39:07.221Z,100.00
2023-04-21T06:44:08.708Z,100.00
2023-04-21T06:49:11.183Z,100.00
2023-04-21T06:54:12.748Z,100.00
2023-04-21T06:59:14.242Z,100.00
2023-04-21T07:04:16.019Z,100.00
2023-04-21T07:09:33.731Z,100.00
2023-04-21T07:14:40.027Z,100.00
2023-04-21T07:19:41.664Z,100.00
2023-04-21T07:24:43.238Z,100.00
2023-04-21T07:29:45.079Z,100.00
2023-04-21T07:34:48.311Z,100.00
2023-04-21T07:39:49.940Z,100.00
2023-04-21T07:44:51.559Z,100.00
2023-04-21T07:49:53.083Z,100.00
2023-04-21T07:54:54.681Z,100.00
2023-04-21T07:59:56.187Z,100.00
2023-04-21T08:04:57.803Z,96.33
2023-04-21T08:10:00.251Z,92.41
2023-04-21T08:15:05.887Z,88.28
2023-04-21T08:20:08.237Z,85.72
2023-04-21T08:25:09.901Z,82.07
2023-04-21T08:30:11.986Z,82.89
2023-04-21T08:35:13.533Z,81.43
2023-04-21T08:40:15.167Z,79.84
2023-04-21T08:45:17.131Z,77.86
2023-04-21T08:50:19.142Z,78.04
2023-04-21T08:55:24.393Z,77.19
2023-04-21T09:00:28.010Z,77.67
2023-04-21T09:05:33.893Z,77.00
2023-04-21T09:10:46.335Z,75.70
2023-04-21T09:15:52.194Z,74.95
2023-04-21T09:21:08.949Z,74.95
2023-04-21T09:26:14.114Z,75.00
2023-04-21T09:31:29.206Z,74.05
2023-04-21T09:36:31.988Z,75.06
2023-04-21T09:41:33.888Z,72.78
2023-04-21T09:46:37.139Z,74.63
2023-04-21T09:52:05.982Z,74.58
2023-04-21T09:57:04.372Z,73.32
2023-04-21T10:02:07.600Z,71.61
2023-04-21T10:07:10.221Z,70.19
2023-04-21T10:12:13.966Z,69.91
2023-04-21T10:17:17.859Z,69.68
2023-04-21T10:22:30.620Z,68.52
2023-04-21T10:27:45.486Z,68.31
2023-04-21T10:32:47.297Z,71.63
2023-04-21T10:37:52.065Z,68.86
2023-04-21T10:42:53.779Z,69.45
2023-04-21T10:47:55.445Z,68.87
2023-04-21T10:53:11.245Z,68.22
2023-04-21T10:58:16.664Z,68.67
2023-04-21T11:03:18.487Z,66.37
2023-04-21T11:08:20.297Z,65.30
2023-04-21T11:13:27.338Z,66.61
2023-04-21T11:18:33.803Z,65.12
2023-04-21T11:23:35.759Z,65.97
2023-04-21T11:28:37.310Z,65.28
2023-04-21T11:33:39.709Z,66.37
2023-04-21T11:38:41.864Z,66.81
2023-04-21T11:43:46.168Z,67.40
2023-04-21T11:49:07.602Z,67.33
2023-04-21T11:54:11.785Z,64.31
2023-04-21T11:59:16.672Z,66.53
2023-04-21T12:04:23.540Z,65.08
2023-04-21T12:09:26.015Z,65.36
2023-04-21T12:14:27.561Z,66.52
2023-04-21T12:19:42.229Z,65.03
2023-04-21T12:24:44.620Z,67.63
2023-04-21T12:29:46.139Z,63.42
2023-04-21T12:34:47.638Z,65.91
2023-04-21T12:39:49.236Z,64.25
2023-04-21T12:44:50.769Z,65.19
2023-04-21T12:49:52.309Z,63.50
2023-04-21T12:54:54.002Z,64.96
2023-04-21T12:59:56.001Z,63.21
2023-04-21T13:04:57.528Z,64.32
2023-04-21T13:09:59.118Z,63.56
2023-04-21T13:15:00.657Z,62.70
2023-04-21T13:20:02.350Z,61.97
2023-04-21T13:25:04.565Z,61.74
2023-04-21T13:30:08.686Z,63.13
2023-04-21T13:35:10.754Z,63.17
2023-04-21T13:40:12.257Z,62.78
2023-04-21T13:45:13.837Z,61.31
2023-04-21T13:50:16.272Z,63.25
2023-04-21T13:55:17.866Z,62.61
2023-04-21T14:00:19.702Z,61.16
2023-04-21T14:05:22.944Z,62.58
2023-04-21T14:10:24.686Z,61.39
2023-04-21T14:15:26.336Z,62.35
2023-04-21T14:20:28.306Z,60.62
2023-04-21T14:25:32.243Z,61.75
2023-04-21T14:30:36.099Z,62.28
2023-04-21T14:35:37.872Z,61.29
2023-04-21T14:40:39.478Z,61.45
2023-04-21T14:45:41.309Z,61.94
2023-04-21T14:50:43.033Z,62.21
2023-04-21T14:55:44.601Z,63.76
2023-04-21T15:00:46.326Z,63.92
2023-04-21T15:05:47.943Z,64.60
2023-04-21T15:10:49.635Z,64.38
2023-04-21T15:15:52.191Z,64.24
2023-04-21T15:20:53.704Z,62.89
2023-04-21T15:25:56.151Z,64.12
2023-04-21T15:30:57.701Z,68.35
2023-04-21T15:35:59.203Z,72.83
2023-04-21T15:41:01.656Z,82.00
2023-04-21T15:46:04.431Z,86.25
2023-04-21T15:51:06.383Z,87.48
2023-04-21T15:56:07.989Z,88.47
2023-04-21T16:01:09.934Z,90.38
2023-04-21T16:06:11.743Z,91.97
2023-04-21T16:11:13.453Z,92.67
2023-04-21T16:16:14.987Z,92.66
2023-04-21T16:21:16.532Z,93.25
2023-04-21T16:26:18.066Z,94.23
2023-04-21T16:31:22.391Z,94.81
2023-04-21T16:36:24.015Z,95.12
2023-04-21T16:41:25.592Z,95.14
2023-04-21T16:46:27.198Z,94.33
2023-04-21T16:51:28.808Z,93.60
2023-04-21T16:56:32.786Z,93.60
2023-04-21T17:01:34.457Z,91.92
2023-04-21T17:06:36.078Z,88.34
2023-04-21T17:11:39.945Z,85.31
2023-04-21T17:16:42.071Z,83.80
2023-04-21T17:21:43.732Z,83.20
2023-04-21T17:26:45.494Z,83.18
2023-04-21T17:31:52.438Z,81.87
2023-04-21T17:36:54.082Z,81.62
2023-04-21T17:41:55.662Z,82.13
2023-04-21T17:47:01.393Z,82.59
2023-04-21T17:52:05.941Z,83.71
2023-04-21T17:57:07.433Z,84.71
2023-04-21T18:02:09.116Z,85.39
2023-04-21T18:07:11.009Z,85.93
2023-04-21T18:12:12.488Z,86.68
2023-04-21T18:17:16.018Z,87.59
2023-04-21T18:22:18.855Z,88.90
2023-04-21T18:27:20.400Z,89.77
2023-04-21T18:32:21.959Z,90.61
2023-04-21T18:37:23.503Z,91.59
2023-04-21T18:42:26.323Z,92.95
2023-04-21T18:47:27.913Z,94.37
2023-04-21T18:52:29.404Z,94.72
2023-04-21T18:57:30.931Z,95.86
2023-04-21T19:02:32.896Z,97.21
2023-04-21T19:07:35.085Z,98.31
2023-04-21T19:12:36.983Z,97.64
2023-04-21T19:17:39.653Z,98.50
2023-04-21T19:22:42.009Z,98.36
2023-04-21T19:27:44.103Z,99.16
2023-04-21T19:32:45.725Z,97.43
2023-04-21T19:37:47.418Z,96.64
2023-04-21T19:42:48.937Z,96.22
2023-04-21T19:47:52.598Z,96.01
2023-04-21T19:52:54.184Z,95.02
2023-04-21T19:57:55.757Z,94.78
2023-04-21T20:02:57.387Z,94.44
2023-04-21T20:07:59.696Z,94.39
2023-04-21T20:13:01.229Z,94.94
2023-04-21T20:18:02.790Z,95.04
2023-04-21T20:23:04.429Z,97.63
2023-04-21T20:28:05.978Z,96.89
2023-04-21T20:33:07.582Z,97.29
2023-04-21T20:38:10.322Z,98.88
2023-04-21T20:43:12.297Z,99.54
2023-04-21T20:48:13.860Z,99.99
2023-04-21T20:53:15.383Z,100.00
2023-04-21T20:58:16.952Z,99.75
2023-04-21T21:03:20.360Z,100.00
2023-04-21T21:08:22.279Z,100.00
2023-04-21T21:13:25.671Z,99.13
2023-04-21T21:18:27.173Z,98.61
2023-04-21T21:23:28.979Z,99.13
2023-04-21T21:28:30.712Z,100.00
2023-04-21T21:33:33.310Z,100.00
2023-04-21T21:38:34.842Z,100.00
2023-04-21T21:43:36.359Z,100.00
2023-04-21T21:48:37.940Z,100.00
2023-04-21T21:53:39.460Z,100.00
2023-04-21T21:58:41.021Z,100.00
2023-04-21T22:03:42.887Z,100.00
2023-04-21T22:08:45.529Z,100.00
2023-04-21T22:13:47.185Z,100.00
2023-04-21T22:18:49.067Z,100.00
2023-04-21T22:23:50.607Z,100.00
2023-04-21T22:28:54.626Z,100.00
2023-04-21T22:33:56.295Z,100.00
2023-04-21T22:38:58.102Z,100.00
2023-04-21T22:43:59.618Z,100.00
2023-04-21T22:49:03.084Z,100.00
2023-04-21T22:54:04.668Z,100.00
2023-04-21T22:59:06.202Z,100.00
2023-04-21T23:04:08.308Z,100.00
2023-04-21T23:09:09.962Z,100.00
2023-04-21T23:14:11.470Z,100.00
2023-04-21T23:19:12.971Z,100.00
2023-04-21T23:24:14.546Z,100.00
2023-04-21T23:29:16.045Z,100.00
2023-04-21T23:34:17.559Z,100.00
2023-04-21T23:39:21.483Z,100.00
2023-04-21T23:44:23.046Z,100.00
2023-04-21T23:49:24.589Z,100.00
2023-04-21T23:54:28.209Z,100.00
2023-04-21T23:59:29.709Z,100.00
